createdAt,value
2022-12-16T00:04:12.024Z,20.50
2022-12-16T00:09:14.826Z,20.00
2022-12-16T00:14:19.011Z,20.00
2022-12-16T00:19:21.778Z,19.25
2022-12-16T00:24:24.690Z,19.00
2022-12-16T00:29:28.826Z,20.50
2022-12-16T00:34:31.586Z,20.00
2022-12-16T00:39:34.333Z,18.20
2022-12-16T00:44:38.553Z,17.25
2022-12-16T00:49:41.349Z,19.75
2022-12-16T00:54:44.276Z,18.75
2022-12-16T00:59:48.434Z,19.40
2022-12-16T01:04:51.261Z,19.00
2022-12-16T01:09:55.030Z,18.80
2022-12-16T01:14:59.210Z,19.80
2022-12-16T01:20:02.311Z,19.25
2022-12-16T01:25:05.811Z,18.40
2022-12-16T01:30:11.708Z,18.60
2022-12-16T01:35:51.025Z,18.00
2022-12-16T01:40:37.310Z,18.80
2022-12-16T01:45:41.815Z,16.60
2022-12-16T01:50:44.656Z,16.00
2022-12-16T01:55:49.203Z,16.60
2022-12-16T02:00:54.629Z,17.60
2022-12-16T02:05:57.509Z,16.40
2022-12-16T02:11:09.184Z,16.00
2022-12-16T02:16:17.409Z,17.00
2022-12-16T02:21:57.919Z,16.25
2022-12-16T02:27:42.005Z,15.40
2022-12-16T02:32:53.181Z,17.50
2022-12-16T02:38:01.143Z,16.00
2022-12-16T02:43:05.813Z,15.00
2022-12-16T02:48:09.892Z,15.00
2022-12-16T02:53:12.669Z,15.00
2022-12-16T02:58:17.498Z,15.80
2022-12-16T03:03:22.292Z,15.60
2022-12-16T03:08:27.236Z,16.80
2022-12-16T03:13:32.056Z,15.00
2022-12-16T03:18:36.511Z,15.00
2022-12-16T03:23:43.636Z,15.60
2022-12-16T03:28:49.628Z,14.40
2022-12-16T03:33:55.608Z,14.00
2022-12-16T03:38:58.355Z,14.00
2022-12-16T03:44:01.127Z,12.80
2022-12-16T03:49:05.221Z,12.80
2022-12-16T03:54:08.032Z,14.80
2022-12-16T03:59:11.293Z,15.00
2022-12-16T04:04:15.434Z,13.20
2022-12-16T04:09:18.395Z,14.00
2022-12-16T04:14:38.749Z,13.00
2022-12-16T04:20:02.451Z,14.80
2022-12-16T04:25:07.382Z,13.80
2022-12-16T04:30:21.989Z,14.00
2022-12-16T04:35:43.490Z,13.00
2022-12-16T04:41:03.582Z,14.20
2022-12-16T04:46:24.408Z,13.40
2022-12-16T04:51:46.222Z,12.80
2022-12-16T04:57:06.341Z,13.80
2022-12-16T05:02:26.467Z,12.60
2022-12-16T05:07:48.157Z,12.00
2022-12-16T05:13:08.263Z,12.00
2022-12-16T05:18:29.263Z,11.00
2022-12-16T05:23:51.054Z,13.60
2022-12-16T05:29:25.574Z,12.00
2022-12-16T05:34:45.726Z,12.00
2022-12-16T05:40:07.495Z,12.20
2022-12-16T05:45:27.948Z,12.00
2022-12-16T05:50:48.224Z,12.40
2022-12-16T05:56:09.762Z,11.40
2022-12-16T06:01:30.077Z,12.40
2022-12-16T06:06:46.885Z,12.40
2022-12-16T06:12:08.865Z,11.20
2022-12-16T06:17:29.050Z,11.40
2022-12-16T06:22:49.120Z,10.80
2022-12-16T06:28:10.944Z,12.00
2022-12-16T06:33:31.349Z,10.20
2022-12-16T06:38:51.821Z,12.00
2022-12-16T06:44:13.421Z,11.00
2022-12-16T06:49:33.730Z,12.00
2022-12-16T06:54:53.806Z,11.60
2022-12-16T07:00:15.477Z,10.80
2022-12-16T07:05:35.785Z,11.60
2022-12-16T07:11:01.225Z,11.20
2022-12-16T07:16:30.660Z,11.80
2022-12-16T07:21:51.350Z,10.80
2022-12-16T07:27:15.292Z,12.00
2022-12-16T07:32:36.704Z,12.60
2022-12-16T07:37:57.264Z,9.20
2022-12-16T07:43:17.476Z,10.40
2022-12-16T07:48:38.987Z,10.80
2022-12-16T07:53:59.298Z,11.00
2022-12-16T07:59:19.428Z,36.25
2022-12-16T08:04:46.177Z,35.33
2022-12-16T08:10:06.712Z,33.33
2022-12-16T08:15:28.681Z,30.00
2022-12-16T08:20:50.130Z,28.00
2022-12-16T08:26:11.123Z,26.25
2022-12-16T08:31:31.228Z,25.25
2022-12-16T08:36:53.126Z,21.75
2022-12-16T08:42:14.342Z,21.75
2022-12-16T08:47:34.857Z,19.00
2022-12-16T08:52:56.526Z,18.00
2022-12-16T08:58:16.625Z,19.00
2022-12-16T09:03:37.467Z,16.50
2022-12-16T09:08:59.390Z,16.00
2022-12-16T09:14:19.478Z,16.00
2022-12-16T09:19:39.855Z,13.40
2022-12-16T09:25:02.134Z,15.20
2022-12-16T09:30:23.002Z,15.00
2022-12-16T09:35:43.357Z,15.60
2022-12-16T09:41:05.087Z,13.80
2022-12-16T09:46:27.728Z,14.60
2022-12-16T09:51:48.553Z,13.20
2022-12-16T09:57:10.034Z,12.20
2022-12-16T10:02:30.799Z,15.00
2022-12-16T10:07:51.132Z,16.00
2022-12-16T10:13:17.272Z,16.00
2022-12-16T10:18:47.260Z,18.00
2022-12-16T10:24:09.703Z,17.00
2022-12-16T10:29:38.196Z,18.50
2022-12-16T10:34:58.394Z,19.75
2022-12-16T10:40:18.919Z,18.00
2022-12-16T10:45:42.723Z,18.50
2022-12-16T10:51:17.615Z,19.00
2022-12-16T10:56:51.395Z,18.00
2022-12-16T11:02:16.957Z,19.00
2022-12-16T11:07:51.276Z,18.00
2022-12-16T11:13:11.388Z,31.00
2022-12-16T11:18:33.778Z,21.00
2022-12-16T11:23:56.266Z,20.50
2022-12-16T11:29:22.103Z,19.00
2022-12-16T11:34:43.791Z,18.75
2022-12-16T11:40:03.815Z,18.75
2022-12-16T11:45:25.475Z,18.00
2022-12-16T11:50:47.537Z,15.40
2022-12-16T11:56:15.717Z,17.00
2022-12-16T12:01:44.774Z,17.75
2022-12-16T12:07:44.922Z,16.75
2022-12-16T12:13:07.369Z,15.40
2022-12-16T12:18:34.672Z,16.80
2022-12-16T12:24:15.898Z,16.40
2022-12-16T12:29:38.762Z,14.80
2022-12-16T12:35:01.289Z,15.00
2022-12-16T12:40:32.925Z,16.00
2022-12-16T12:46:06.948Z,13.80
2022-12-16T12:51:36.200Z,15.20
2022-12-16T12:57:01.013Z,13.60
2022-12-16T13:02:21.899Z,14.00
2022-12-16T13:07:42.228Z,14.75
2022-12-16T13:13:03.657Z,15.40
2022-12-16T13:18:51.328Z,14.50
2022-12-16T13:24:12.463Z,14.00
2022-12-16T13:29:37.032Z,15.60
2022-12-16T13:34:57.304Z,14.40
2022-12-16T13:40:21.957Z,16.40
2022-12-16T13:45:51.729Z,13.40
2022-12-16T13:51:18.930Z,14.20
2022-12-16T13:56:42.675Z,13.00
2022-12-16T14:02:08.742Z,15.80
2022-12-16T14:07:29.137Z,15.00
2022-12-16T14:13:06.753Z,14.80
2022-12-16T14:18:32.632Z,13.00
2022-12-16T14:23:57.217Z,13.40
2022-12-16T14:29:18.340Z,14.00
2022-12-16T14:34:41.029Z,13.40
2022-12-16T14:40:01.566Z,13.00
2022-12-16T14:45:23.852Z,14.20
2022-12-16T14:50:46.025Z,14.60
2022-12-16T14:56:06.479Z,13.80
2022-12-16T15:01:31.710Z,13.60
2022-12-16T15:06:56.897Z,13.00
2022-12-16T15:12:13.655Z,13.40
2022-12-16T15:17:38.009Z,14.60
2022-12-16T15:23:03.202Z,13.60
2022-12-16T15:28:23.360Z,13.00
2022-12-16T15:33:44.846Z,11.80
2022-12-16T15:39:02.911Z,13.60
2022-12-16T15:44:23.150Z,13.80
2022-12-16T15:49:47.128Z,11.00
2022-12-16T15:55:10.044Z,13.00
2022-12-16T16:00:38.353Z,12.60
2022-12-16T16:05:58.548Z,11.80
2022-12-16T16:11:20.342Z,14.00
2022-12-16T16:16:40.753Z,12.00
2022-12-16T16:22:01.050Z,12.80
2022-12-16T16:27:22.839Z,12.60
2022-12-16T16:32:43.033Z,11.00
2022-12-16T16:38:03.587Z,11.00
2022-12-16T16:43:24.999Z,12.80
2022-12-16T16:48:45.606Z,12.80
2022-12-16T16:54:05.700Z,10.40
2022-12-16T16:59:27.974Z,10.40
2022-12-16T17:04:48.187Z,10.60
2022-12-16T17:10:08.900Z,10.20
2022-12-16T17:15:41.700Z,11.00
2022-12-16T17:21:02.152Z,11.00
2022-12-16T17:26:22.944Z,12.00
2022-12-16T17:31:47.045Z,10.20
2022-12-16T17:37:07.232Z,11.40
2022-12-16T17:42:27.703Z,10.80
2022-12-16T17:47:49.202Z,10.20
2022-12-16T17:53:12.494Z,10.40
2022-12-16T17:58:32.905Z,10.60
2022-12-16T18:03:54.780Z,9.80
2022-12-16T18:09:15.611Z,11.00
2022-12-16T18:14:35.761Z,9.00
2022-12-16T18:19:57.318Z,10.00
2022-12-16T18:25:14.171Z,10.00
2022-12-16T18:30:34.638Z,11.20
2022-12-16T18:35:56.013Z,10.40
2022-12-16T18:41:20.810Z,10.00
2022-12-16T18:46:41.184Z,9.80
2022-12-16T18:52:03.104Z,10.20
2022-12-16T18:57:23.635Z,10.40
2022-12-16T19:02:43.937Z,10.40
2022-12-16T19:08:07.921Z,10.80
2022-12-16T19:13:31.839Z,9.80
2022-12-16T19:18:51.990Z,12.80
2022-12-16T19:24:29.141Z,11.00
2022-12-16T19:29:49.641Z,11.20
2022-12-16T19:35:10.130Z,9.80
2022-12-16T19:40:31.860Z,11.00
2022-12-16T19:45:52.293Z,11.80
2022-12-16T19:51:17.081Z,12.80
2022-12-16T19:56:38.491Z,10.60
2022-12-16T20:01:59.156Z,10.60
2022-12-16T20:07:23.146Z,11.60
2022-12-16T20:12:47.483Z,11.00
2022-12-16T20:18:07.739Z,14.00
2022-12-16T20:23:27.958Z,15.00
2022-12-16T20:28:49.378Z,16.60
2022-12-16T20:34:11.931Z,17.80
2022-12-16T20:39:32.270Z,18.00
2022-12-16T20:44:53.716Z,17.80
2022-12-16T20:50:16.293Z,18.25
2022-12-16T20:55:36.785Z,19.00
2022-12-16T21:00:58.766Z,19.60
2022-12-16T21:06:19.314Z,21.00
2022-12-16T21:11:39.759Z,19.00
2022-12-16T21:17:01.276Z,22.00
2022-12-16T21:22:21.880Z,21.25
2022-12-16T21:27:42.267Z,20.50
2022-12-16T21:33:03.989Z,20.50
2022-12-16T21:38:26.699Z,19.50
2022-12-16T21:43:58.407Z,22.00
2022-12-16T21:49:20.083Z,20.25
2022-12-16T21:54:40.493Z,21.50
2022-12-16T22:00:01.084Z,22.75
2022-12-16T22:05:32.279Z,20.25
2022-12-16T22:10:52.824Z,20.50
2022-12-16T22:16:16.844Z,18.40
2022-12-16T22:21:53.010Z,20.60
2022-12-16T22:27:13.627Z,17.60
2022-12-16T22:32:33.917Z,18.20
2022-12-16T22:37:56.157Z,17.40
2022-12-16T22:43:16.710Z,18.20
2022-12-16T22:48:37.091Z,17.20
2022-12-16T22:53:58.848Z,18.00
2022-12-16T22:59:18.903Z,18.00
2022-12-16T23:04:39.163Z,17.00
2022-12-16T23:10:00.782Z,18.20
2022-12-16T23:15:21.881Z,15.80
2022-12-16T23:20:42.126Z,17.00
2022-12-16T23:26:13.382Z,17.80
2022-12-16T23:31:33.534Z,15.00
2022-12-16T23:36:54.016Z,16.80
2022-12-16T23:42:18.093Z,17.60
2022-12-16T23:47:38.506Z,16.60
2022-12-16T23:52:58.892Z,14.60
2022-12-16T23:58:21.297Z,15.80
